WEATHER DATA

TODAY
Time Temp. Dewp. Hum. Wind dir Wind speed Wind gust Bar. 1h Prec. 24h Prec.
00:02 3.2 0.4 82 247 0.8 2.2 1019.2 0.0000 0.0000
00:12 3.2 0.4 82 236 0.8 1.9 1019.3 0.0000 0.0000
00:22 3.2 0.4 82 238 0.8 1.9 1019.3 0.0000 0.0000
00:33 3.2 0.4 82 248 0.8 1.7 1019.3 0.0000 0.0000
00:42 3.2 0.4 82 252 1.1 2.2 1019.2 0.0000 0.0000
00:52 3.1 0.3 82 255 0.8 2.2 1019.2 0.0000 0.0000
01:02 3.1 0.3 82 242 1.1 2.2 1019.2 0.0000 0.0000
01:13 3 0.2 82 242 0.8 2.5 1019.2 0.0000 0.0000
01:22 3 0.4 83 242 1.4 2.8 1019.2 0.0000 0.0000
01:32 3 0.4 83 245 0.8 2.5 1019.3 0.0000 0.0000
01:42 2.9 0.3 83 248 1.4 2.8 1019.3 0.0000 0.0000
01:51 2.9 0.3 83 255 1.4 3.1 1019.2 0.0000 0.0000
02:01 2.9 0.3 83 247 0.8 1.7 1019.3 0.0000 0.0000
02:12 2.9 0.3 83 270 0.8 1.4 1019.5 0.0000 0.0000
02:22 2.9 0.3 83 242 0.8 1.4 1019.5 0.0000 0.0000
02:31 3 0.4 83 247 0.8 1.7 1019.4 0.0000 0.0000
02:42 3 0.4 83 243 0.8 1.7 1019.5 0.0000 0.0000
02:52 3 0.4 83 242 1.1 2.2 1019.5 0.0000 0.0000
03:02 3 0.4 83 225 0.8 1.7 1019.6 0.0000 0.0000
03:12 3 0.4 83 237 1.1 2.5 1019.5 0.0000 0.0000
03:22 3 0.4 83 234 1.1 3.3 1019.4 0.0000 0.0000
03:32 3.1 0.5 83 243 0.6 1.9 1019.4 0.0000 0.0000
03:42 3.1 0.5 83 306 0.6 1.1 1019.3 0.0000 0.0000
03:53 3.1 0.3 82 348 0.6 1.7 1019.3 0.0000 0.0000
04:02 3.1 0.3 82 0 0.6 1.4 1019.2 0.0000 0.0000
04:12 3.2 0.4 82 351 0.8 2.2 1019.2 0.0000 0.0000
04:22 3.2 0.4 82 348 0.8 2.5 1019.3 0.0000 0.0000
04:33 3.3 0.5 82 287 0.8 1.7 1019.4 0.0000 0.0000
04:43 3.3 0.5 82 270 0.6 1.7 1019.4 0.0000 0.0000
04:52 3.4 0.6 82 243 0.6 1.9 1019.4 0.0000 0.0000
05:03 3.4 0.6 82 270 0.6 1.1 1019.4 0.0000 0.0000
05:13 3.5 0.7 82 225 0.6 1.4 1019.5 0.0000 0.0000
05:23 3.5 0.7 82 270 0.6 1.4 1019.6 0.0000 0.0000
05:32 3.5 0.7 82 270 0.6 1.7 1019.6 0.0000 0.0000
05:43 3.5 0.7 82 248 1.1 2.5 1019.6 0.0000 0.0000
05:53 3.5 0.7 82 259 1.1 2.8 1019.6 0.0000 0.0000
06:03 3.4 0.6 82 256 1.1 2.8 1019.9 0.0000 0.0000
06:13 3.4 0.6 82 259 1.4 2.8 1020 0.0000 0.0000
06:23 3.4 0.6 82 270 0.6 1.4 1020 0.0000 0.0000
06:33 3.3 0.5 82 233 0.6 1.4 1020.2 0.0000 0.0000
06:43 3.3 0.5 82 255 0.8 1.9 1020.3 0.0000 0.0000
06:54 3.2 0.4 82 270 0.6 1.4 1020.4 0.0000 0.0000
07:03 3.1 0.3 82 232 0.6 1.7 1020.5 0.0000 0.0000
07:13 3.1 0.3 82 225 0.6 1.7 1020.5 0.0000 0.0000
07:24 3 0.2 82 233 0.8 1.4 1020.7 0.0000 0.0000
07:34 3 0.2 82 249 0.8 1.7 1020.7 0.0000 0.0000
07:44 3 0.2 82 247 1.1 2.2 1020.7 0.0000 0.0000
07:53 3.1 0.3 82 270 0.6 1.7 1020.9 0.0000 0.0000
08:04 3.1 0.3 82 270 0.6 1.4 1020.9 0.0000 0.0000
08:14 3.2 0.4 82 270 0.6 1.4 1020.9 0.0000 0.0000
08:24 3.3 0.5 82 249 0.8 1.7 1021 0.0000 0.0000
08:34 3.4 0.6 82 286 1.9 3.9 1021 0.0000 0.0000
08:44 3.6 0.8 82 245 1.7 3.9 1021.1 0.0000 0.0000
08:54 3.9 1.1 82 6 1.4 3.3 1021.3 0.0000 0.0000
09:04 4.2 1.4 82 237 1.1 2.5 1021.3 0.0000 0.0000
09:15 4.5 1.7 82 296 1.1 2.2 1021.4 0.0000 0.0000
09:24 4.8 1.8 81 236 1.4 2.8 1021.4 0.0000 0.0000
09:34 5.1 2.1 81 210 1.4 2.5 1021.5 0.0000 0.0000
09:45 5.5 2.5 81 163 1.9 4.4 1021.6 0.0000 0.0000
09:55 6 3 81 202 1.9 4.2 1021.8 0.0000 0.0000
10:04 6.5 3.3 80 117 1.7 4.2 1021.8 0.0000 0.0000
10:14 7.1 3.9 80 144 1.9 5.3 1021.7 0.0000 0.0000
10:25 7.7 4.1 78 202 1.7 3.9 1021.9 0.0000 0.0000
10:35 8.3 4.5 77 1.9 4.4 1021.8 0.0000 0.0000
10:45 8.7 4.5 75 1.7 4.2 1021.9 0.0000 0.0000
10:55 9.1 4.5 73 233 1.7 4.7 1021.8 0.0000 0.0000
11:05 9.5 4.5 71 246 2.2 5 1021.8 0.0000 0.0000
11:15 9.8 4.6 70 296 1.9 5 1021.7 0.0000 0.0000
11:25 10 4.6 69 258 1.4 3.3 1021.7 0.0000 0.0000
11:35 10.1 4.5 68 250 1.4 4.2 1021.5 0.0000 0.0000
11:45 10.4 4.5 67 294 2.5 5.8 1021.4 0.0000 0.0000
11:55 10.6 4.5 66 270 1.1 2.8 1021.3 0.0000 0.0000
12:06 10.9 4.8 66 258 1.7 4.2 1021 0.0000 0.0000
12:16 11 4.5 64 251 0.8 1.9 1021 0.0000 0.0000
12:25 11.2 4.4 63 261 1.4 3.3 1020.9 0.0000 0.0000
12:35 11.4 4.8 64 220 1.9 3.9 1020.8 0.0000 0.0000
12:46 11.6 4.6 62 259 1.4 4.7 1020.8 0.0000 0.0000
12:56 11.6 4.3 61 287 1.4 2.8 1020.6 0.0000 0.0000
13:06 11.7 4.4 61 270 1.1 3.1 1020.6 0.0000 0.0000
13:16 11.6 4.1 60 231 1.7 3.9 1020.7 0.0000 0.0000
13:26 11.4 3.9 60 225 1.4 3.1 1020.5 0.0000 0.0000
13:36 11.2 3.7 60 234 1.4 3.6 1020.3 0.0000 0.0000
13:46 10.9 3.2 59 217 1.7 3.9 1020.2 0.0000 0.0000
13:56 10.7 3 59 234 1.1 3.1 1020.2 0.0000 0.0000
14:06 10.4 2.7 59 239 1.1 3.1 1020.1 0.0000 0.0000
14:16 10.1 2.2 58 212 1.1 3.1 1020.1 0.0000 0.0000
14:27 9.9 2.3 59 354 1.1 2.2 1020.1 0.0000 0.0000
14:33 9.8 2.2 59 40 1.1 6.1 1019.9 0.0000 0.0000
14:43 9.7 2.1 59 166 0.8 2.8 1019.9 0.0000 0.0000
14:53 9.7 2.3 60 240 0.8 2.2 1019.8 0.0000 0.0000
15:02 9.6 2.2 60 270 0.6 2.2 1019.8 0.0000 0.0000
15:13 9.6 2.2 60 289 0.6 2.5 1019.8
15:23 9.6 2.2 60 241 0.6 1.7 1019.9
15:33 9.5 2.1 60 246 0.6 1.4 1019.9
15:43 9.4 2.3 61 239 1.1 3.1 1019.9
15:53 9.4 2.3 61 244 0.8 1.9 1020
16:08 9.4 2.3 61 319 0.8 3.1 1019.9 0.0000 0.0000
16:18 9.4 2.3 61 243 0.8 2.5 1019.9 0.0000 0.0000
16:29 9.3 2.2 61 259 0.8 2.5 1019.9 0.0000 0.0000
16:39 9.2 2.3 62 270 0.8 2.2 1019.9 0.0000 0.0000
16:48 9.1 2.2 62 270 0.8 3.1 1019.9 0.0000 0.0000
16:59 9 2.1 62 270 0.8 2.5 1020 0.0000 0.0000
17:09 8.9 2 62 252 1.4 2.8 1020 0.0000 0.0000
17:19 8.8 2.2 63 256 1.1 3.1 1020 0.0000 0.0000
17:29 8.7 2.1 63 270 0.6 1.4 1020 0.0000 0.0000

DAY STATISTIC

2023-02-01
TEMPERATURE
AVERAGE
6.1
HIGH
11.7
13:06
LOW
2.9
01:42
PRESSURE
AVERAGE
1020.2
HIGH
1021.9
10:25
LOW
1019.2
00:02
DEWPOINT
AVERAGE
1.8
HIGH
4.8
12:06
LOW
0.2
01:13
HUMIDITY
AVERAGE
74
HIGH
83
01:22
LOW
58
14:16
WIND SPEED
AVERAGE
1.1
HIGH
2.5
11:45
WIND GUST
AVERAGE
2.7
HIGH
6.1
14:33
WIND DIRECTION
PREVAILING
SW
41%
N
5.7
NE
1.0
E
0.0
SE
1.9
S
3.8
SW
41.0
W
40.0
NW
4.8
PRECIPITATION
RAIN HOUR
0.0
RAIN DAY
0.0
TEMPERATURE (°C)
LOW
2.9
HIGH
11.7
AVERAGE
6.1
PRESSURE (hpa)
LOW
1019.2
HIGH
1021.9
AVERAGE
1020.2
DEVICE